createdAt,value
2018-09-29T00:00:46.443Z,99.90
2018-09-29T00:03:14.949Z,99.90
2018-09-29T00:05:43.454Z,99.90
2018-09-29T00:08:12.132Z,99.90
2018-09-29T00:10:40.562Z,99.90
2018-09-29T00:13:09.153Z,99.90
2018-09-29T00:15:37.590Z,99.90
2018-09-29T00:18:06.238Z,99.90
2018-09-29T00:20:34.716Z,99.90
2018-09-29T00:23:03.180Z,99.90
2018-09-29T00:25:31.625Z,99.90
2018-09-29T00:28:00.111Z,99.90
2018-09-29T00:30:28.599Z,99.90
2018-09-29T00:32:57.044Z,99.90
2018-09-29T00:35:25.616Z,99.90
2018-09-29T00:37:54.076Z,99.90
2018-09-29T00:40:22.592Z,99.90
2018-09-29T00:42:51.192Z,99.90
2018-09-29T00:45:19.645Z,99.90
2018-09-29T00:47:48.093Z,99.90
2018-09-29T00:50:16.588Z,99.90
2018-09-29T00:52:45.067Z,99.90
2018-09-29T00:55:13.659Z,99.90
2018-09-29T00:57:42.111Z,99.90
2018-09-29T01:00:10.536Z,99.90
2018-09-29T01:02:38.984Z,99.90
2018-09-29T01:05:07.522Z,99.90
2018-09-29T01:07:35.981Z,99.90
2018-09-29T01:10:04.474Z,99.90
2018-09-29T01:12:33.678Z,99.90
2018-09-29T01:15:02.345Z,99.90
2018-09-29T01:17:31.033Z,99.90
2018-09-29T01:19:59.518Z,99.90
2018-09-29T01:22:28.099Z,99.90
2018-09-29T01:24:56.609Z,99.90
2018-09-29T01:27:25.078Z,99.90
2018-09-29T01:29:53.532Z,99.90
2018-09-29T01:32:22.002Z,99.90
2018-09-29T01:34:50.500Z,99.90
2018-09-29T01:37:18.980Z,99.90
2018-09-29T01:39:47.445Z,99.90
2018-09-29T01:42:16.084Z,99.90
2018-09-29T01:44:44.525Z,99.90
2018-09-29T01:47:13.139Z,99.90
2018-09-29T01:49:41.620Z,99.90
2018-09-29T01:52:10.076Z,99.90
2018-09-29T01:54:38.520Z,99.90
2018-09-29T01:57:07.017Z,99.90
2018-09-29T01:59:35.461Z,99.90
2018-09-29T02:02:04.226Z,99.90
2018-09-29T02:04:32.730Z,99.90
2018-09-29T02:07:01.195Z,99.90
2018-09-29T02:09:29.649Z,99.90
2018-09-29T02:11:58.127Z,99.90
2018-09-29T02:14:26.652Z,99.90
2018-09-29T02:16:55.127Z,99.90
2018-09-29T02:19:23.621Z,99.90
2018-09-29T02:21:52.060Z,99.90
2018-09-29T02:24:20.518Z,99.90
2018-09-29T02:26:49.019Z,99.90
2018-09-29T02:29:17.476Z,99.90
2018-09-29T02:31:45.994Z,99.90
2018-09-29T02:34:14.598Z,99.90
2018-09-29T02:36:43.037Z,99.90
2018-09-29T02:39:12.581Z,99.90
2018-09-29T02:41:41.085Z,99.90
2018-09-29T02:44:10.174Z,99.90
2018-09-29T02:46:38.701Z,99.90
2018-09-29T02:49:07.201Z,99.90
2018-09-29T02:51:35.662Z,99.90
2018-09-29T02:54:04.400Z,99.90
2018-09-29T02:56:32.886Z,99.90
2018-09-29T02:59:01.409Z,99.90
2018-09-29T03:01:29.892Z,99.90
2018-09-29T03:03:58.661Z,99.90
2018-09-29T03:06:27.201Z,99.90
2018-09-29T03:08:55.769Z,99.90
2018-09-29T03:11:24.245Z,99.90
2018-09-29T03:13:52.698Z,99.90
2018-09-29T03:16:21.150Z,99.90
2018-09-29T03:18:49.676Z,99.90
2018-09-29T03:21:18.105Z,99.90
2018-09-29T03:23:46.568Z,99.90
2018-09-29T03:26:15.043Z,99.90
2018-09-29T03:28:43.496Z,99.90
2018-09-29T03:31:12.050Z,99.90
2018-09-29T03:33:40.513Z,99.90
2018-09-29T03:36:08.959Z,99.90
2018-09-29T03:38:37.396Z,99.90
2018-09-29T03:41:05.878Z,99.90
2018-09-29T03:43:34.319Z,99.90
2018-09-29T03:46:02.818Z,99.90
2018-09-29T03:48:31.311Z,99.90
2018-09-29T03:50:59.822Z,99.90
2018-09-29T03:53:28.314Z,99.90
2018-09-29T03:55:56.798Z,99.90
2018-09-29T03:58:25.250Z,99.90
2018-09-29T04:00:53.726Z,99.90
2018-09-29T04:03:22.214Z,99.90
2018-09-29T04:05:50.697Z,99.90
2018-09-29T04:08:19.145Z,99.90
2018-09-29T04:10:47.623Z,99.90
2018-09-29T04:13:16.085Z,99.90
2018-09-29T04:15:44.833Z,99.90
2018-09-29T04:18:13.313Z,99.90
2018-09-29T04:20:41.898Z,99.90
2018-09-29T04:23:10.365Z,99.90
2018-09-29T04:25:38.850Z,99.90
2018-09-29T04:28:07.310Z,99.90
2018-09-29T04:30:35.785Z,99.90
2018-09-29T04:33:04.261Z,99.90
2018-09-29T04:35:32.728Z,99.90
2018-09-29T04:38:01.179Z,99.90
2018-09-29T04:40:29.744Z,99.90
2018-09-29T04:42:58.371Z,99.90
2018-09-29T04:45:26.919Z,99.90
2018-09-29T04:47:55.397Z,99.90
2018-09-29T04:50:23.836Z,99.90
2018-09-29T04:52:52.288Z,99.90
2018-09-29T04:55:20.776Z,99.90
2018-09-29T04:57:49.243Z,99.90
2018-09-29T05:00:17.692Z,99.90
2018-09-29T05:02:46.177Z,99.90
2018-09-29T05:05:14.685Z,99.90
2018-09-29T05:07:43.183Z,99.90
2018-09-29T05:10:11.947Z,99.90
2018-09-29T05:12:40.406Z,99.90
2018-09-29T05:15:08.913Z,99.90
2018-09-29T05:17:37.395Z,99.90
2018-09-29T05:20:06.148Z,99.90
2018-09-29T05:22:34.613Z,99.90
2018-09-29T05:25:03.093Z,99.90
2018-09-29T05:27:31.526Z,99.90
2018-09-29T05:30:00.018Z,99.90
2018-09-29T05:32:28.695Z,99.90
2018-09-29T05:34:57.162Z,99.90
2018-09-29T05:37:25.640Z,99.90
2018-09-29T05:39:54.119Z,99.90
2018-09-29T05:42:22.580Z,99.90
2018-09-29T05:44:51.030Z,99.90
2018-09-29T05:47:19.501Z,99.90
2018-09-29T05:49:47.961Z,99.90
2018-09-29T05:52:16.513Z,99.90
2018-09-29T05:54:44.982Z,99.90
2018-09-29T05:57:13.441Z,99.90
2018-09-29T05:59:41.918Z,99.90
2018-09-29T06:02:10.415Z,99.90
2018-09-29T06:04:38.919Z,99.90
2018-09-29T06:07:07.632Z,99.90
2018-09-29T06:09:36.020Z,99.90
2018-09-29T06:12:04.466Z,99.90
2018-09-29T06:14:32.929Z,99.90
2018-09-29T06:17:01.428Z,99.90
2018-09-29T06:19:29.975Z,99.90
2018-09-29T06:21:58.452Z,99.90
2018-09-29T06:24:26.943Z,99.90
2018-09-29T06:26:55.399Z,99.90
2018-09-29T06:29:23.869Z,99.90
2018-09-29T06:31:52.351Z,99.90
2018-09-29T06:34:20.875Z,99.90
2018-09-29T06:36:49.334Z,99.90
2018-09-29T06:39:17.807Z,99.90
2018-09-29T06:41:46.292Z,99.90
2018-09-29T06:44:14.733Z,99.90
2018-09-29T06:46:43.273Z,99.90
2018-09-29T06:49:11.865Z,99.90
2018-09-29T06:51:40.322Z,99.90
2018-09-29T06:54:08.780Z,99.90
2018-09-29T06:56:37.245Z,99.90
2018-09-29T06:59:05.922Z,99.90
2018-09-29T07:01:34.424Z,99.90
2018-09-29T07:04:02.907Z,99.90
2018-09-29T07:06:31.400Z,99.90
2018-09-29T07:08:59.986Z,99.90
2018-09-29T07:11:28.467Z,99.90
2018-09-29T07:13:56.919Z,99.90
2018-09-29T07:16:25.417Z,99.90
2018-09-29T07:18:53.864Z,99.90
2018-09-29T07:21:22.360Z,99.90
2018-09-29T07:23:50.868Z,99.90
2018-09-29T07:26:19.434Z,99.90
2018-09-29T07:28:47.896Z,99.90
2018-09-29T07:31:16.436Z,99.90
2018-09-29T07:33:44.853Z,99.90
2018-09-29T07:36:13.329Z,99.90
2018-09-29T07:38:41.838Z,95.00
2018-09-29T07:41:10.372Z,95.90
2018-09-29T07:43:39.451Z,90.20
2018-09-29T07:46:08.227Z,87.20
2018-09-29T07:48:36.744Z,86.90
2018-09-29T07:51:05.509Z,83.20
2018-09-29T07:53:33.990Z,83.40
2018-09-29T07:56:02.519Z,79.00
2018-09-29T07:58:30.945Z,81.90
2018-09-29T08:00:59.454Z,83.20
2018-09-29T08:03:27.922Z,76.50
2018-09-29T08:05:56.436Z,76.20
2018-09-29T08:08:25.072Z,79.60
2018-09-29T08:10:53.525Z,74.50
2018-09-29T08:13:22.004Z,74.10
2018-09-29T08:15:50.490Z,72.10
2018-09-29T08:18:18.935Z,72.70
2018-09-29T08:20:47.386Z,72.40
2018-09-29T08:23:15.885Z,74.10
2018-09-29T08:25:45.604Z,71.30
2018-09-29T08:28:14.115Z,72.00
2018-09-29T08:30:42.637Z,73.70
2018-09-29T08:33:11.691Z,70.10
2018-09-29T08:35:40.149Z,65.70
2018-09-29T08:38:08.731Z,65.70
2018-09-29T08:40:37.216Z,63.70
2018-09-29T08:43:05.707Z,66.30
2018-09-29T08:45:34.203Z,65.40
2018-09-29T08:48:02.656Z,65.30
2018-09-29T08:50:31.233Z,63.00
2018-09-29T08:52:59.703Z,63.10
2018-09-29T08:55:28.296Z,61.50
2018-09-29T08:57:57.087Z,59.90
2018-09-29T09:00:25.593Z,60.00
2018-09-29T09:02:54.073Z,59.20
2018-09-29T09:05:22.621Z,63.10
2018-09-29T09:07:51.235Z,63.70
2018-09-29T09:10:19.721Z,64.70
2018-09-29T09:12:48.190Z,62.80
2018-09-29T09:15:16.697Z,61.70
2018-09-29T09:17:45.183Z,61.80
2018-09-29T09:20:13.642Z,61.90
2018-09-29T09:22:42.136Z,60.60
2018-09-29T09:25:10.652Z,58.50
2018-09-29T09:27:39.126Z,58.50
2018-09-29T09:30:07.721Z,60.30
2018-09-29T09:32:36.167Z,56.90
2018-09-29T09:35:04.844Z,53.90
2018-09-29T09:37:33.330Z,57.70
2018-09-29T09:40:01.829Z,54.10
2018-09-29T09:42:30.498Z,53.90
2018-09-29T09:44:58.979Z,54.50
2018-09-29T09:47:27.506Z,51.50
2018-09-29T09:49:55.954Z,54.90
2018-09-29T09:52:24.458Z,53.20
2018-09-29T09:54:53.006Z,50.10
2018-09-29T09:57:21.484Z,50.50
2018-09-29T09:59:50.096Z,46.70
2018-09-29T10:02:23.977Z,49.30
2018-09-29T10:04:52.477Z,46.50
2018-09-29T10:07:20.935Z,46.30
2018-09-29T10:09:49.422Z,46.00
2018-09-29T10:12:17.916Z,45.70
2018-09-29T10:14:46.387Z,45.80
2018-09-29T10:17:14.870Z,45.10
2018-09-29T10:19:43.349Z,43.90
2018-09-29T10:22:11.857Z,42.30
2018-09-29T10:24:40.361Z,41.10
2018-09-29T10:27:08.864Z,42.40
2018-09-29T10:29:37.323Z,40.50
2018-09-29T10:32:05.990Z,40.90
2018-09-29T10:34:34.478Z,41.50
2018-09-29T10:37:02.957Z,41.90
2018-09-29T10:39:31.419Z,41.90
2018-09-29T10:41:59.893Z,39.90
2018-09-29T10:44:28.368Z,42.20
2018-09-29T10:46:56.952Z,41.70
2018-09-29T10:49:25.543Z,36.90
2018-09-29T10:51:54.019Z,39.80
2018-09-29T10:54:22.492Z,40.10
2018-09-29T10:56:50.989Z,37.60
2018-09-29T10:59:19.786Z,37.20
2018-09-29T11:01:48.332Z,38.80
2018-09-29T11:04:16.848Z,37.10
2018-09-29T11:06:45.392Z,36.50
2018-09-29T11:09:14.099Z,35.50
2018-09-29T11:11:42.815Z,38.10
2018-09-29T11:14:11.309Z,37.30
2018-09-29T11:16:39.888Z,35.80
2018-09-29T11:19:08.384Z,38.90
2018-09-29T11:21:36.843Z,37.40
2018-09-29T11:24:05.325Z,36.30
2018-09-29T11:26:33.901Z,33.50
2018-09-29T11:29:02.358Z,35.10
2018-09-29T11:31:30.825Z,35.00
2018-09-29T11:33:59.453Z,33.60
2018-09-29T11:36:27.899Z,34.90
2018-09-29T11:38:56.358Z,32.60
2018-09-29T11:41:24.823Z,29.20
2018-09-29T11:43:53.444Z,29.50
2018-09-29T11:46:21.924Z,29.90
2018-09-29T11:48:50.400Z,27.40
2018-09-29T11:51:18.861Z,26.40
2018-09-29T11:53:47.327Z,26.50
2018-09-29T11:56:15.862Z,26.70
2018-09-29T11:58:44.309Z,26.10
2018-09-29T12:01:12.798Z,28.10
2018-09-29T12:03:41.344Z,24.40
2018-09-29T12:06:09.829Z,24.70
2018-09-29T12:08:38.341Z,24.80
2018-09-29T12:11:07.220Z,23.80
2018-09-29T12:13:35.668Z,26.10
2018-09-29T12:16:04.187Z,25.10
2018-09-29T12:18:32.747Z,25.30
2018-09-29T12:21:01.283Z,24.40
2018-09-29T12:23:29.797Z,25.00
2018-09-29T12:25:58.283Z,24.40
2018-09-29T12:28:26.781Z,21.90
2018-09-29T12:30:55.267Z,20.80
2018-09-29T12:33:23.831Z,23.90
2018-09-29T12:35:52.272Z,20.60
2018-09-29T12:38:20.723Z,20.10
2018-09-29T12:40:49.868Z,20.10
2018-09-29T12:43:18.354Z,21.30
2018-09-29T12:45:46.790Z,20.30
2018-09-29T12:48:15.448Z,20.80
2018-09-29T12:50:43.947Z,20.00
2018-09-29T12:53:12.419Z,20.90
2018-09-29T12:55:40.908Z,22.20
2018-09-29T12:58:09.374Z,20.50
2018-09-29T13:00:37.847Z,20.00
2018-09-29T13:03:06.000Z,19.90
2018-09-29T13:05:34.497Z,20.50
2018-09-29T13:08:02.947Z,20.80
2018-09-29T13:10:31.422Z,21.60
2018-09-29T13:12:59.890Z,20.50
2018-09-29T13:15:28.340Z,20.00
2018-09-29T13:17:56.867Z,20.40
2018-09-29T13:20:25.316Z,19.30
2018-09-29T13:22:53.775Z,18.90
2018-09-29T13:25:23.063Z,19.40
2018-09-29T13:27:51.536Z,18.80
2018-09-29T13:30:19.970Z,20.50
2018-09-29T13:32:48.450Z,21.30
2018-09-29T13:35:16.903Z,18.70
2018-09-29T13:37:45.377Z,20.00
2018-09-29T13:40:13.879Z,18.90
2018-09-29T13:42:42.339Z,17.20
2018-09-29T13:45:10.858Z,17.10
2018-09-29T13:47:39.415Z,17.00
2018-09-29T13:50:07.929Z,18.00
2018-09-29T13:52:36.476Z,18.90
2018-09-29T13:55:05.071Z,17.90
2018-09-29T13:57:33.672Z,18.70
2018-09-29T14:00:02.143Z,18.70
2018-09-29T14:02:31.391Z,18.30
2018-09-29T14:04:59.875Z,18.10
2018-09-29T14:07:28.333Z,18.80
2018-09-29T14:09:56.833Z,19.10
2018-09-29T14:12:25.294Z,19.60
2018-09-29T14:14:53.762Z,19.40
2018-09-29T14:17:22.225Z,18.50
2018-09-29T14:19:50.711Z,18.80
2018-09-29T14:22:19.206Z,18.40
2018-09-29T14:24:47.681Z,18.60
2018-09-29T14:27:16.139Z,19.20
2018-09-29T14:29:44.599Z,19.00
2018-09-29T14:32:13.064Z,18.00
2018-09-29T14:34:41.576Z,17.20
2018-09-29T14:37:10.107Z,16.90
2018-09-29T14:39:38.603Z,14.70
2018-09-29T14:42:07.075Z,17.60
2018-09-29T14:44:35.676Z,17.70
2018-09-29T14:47:04.223Z,17.40
2018-09-29T14:49:32.680Z,17.40
2018-09-29T14:52:01.108Z,17.10
2018-09-29T14:54:29.605Z,18.40
2018-09-29T14:56:59.409Z,19.30
2018-09-29T14:59:27.960Z,20.90
2018-09-29T15:01:56.449Z,22.80
2018-09-29T15:04:25.137Z,25.90
2018-09-29T15:06:53.928Z,27.10
2018-09-29T15:09:22.428Z,29.50
2018-09-29T15:11:50.915Z,31.00
2018-09-29T15:14:19.532Z,32.20
2018-09-29T15:16:48.100Z,30.10
2018-09-29T15:19:16.583Z,30.70
2018-09-29T15:21:45.055Z,30.00
2018-09-29T15:24:13.620Z,30.60
2018-09-29T15:26:42.067Z,32.00
2018-09-29T15:29:10.544Z,32.40
2018-09-29T15:31:39.012Z,31.80
2018-09-29T15:34:07.491Z,33.30
2018-09-29T15:36:35.960Z,32.00
2018-09-29T15:39:07.390Z,31.90
2018-09-29T15:41:35.824Z,32.50
2018-09-29T15:44:04.339Z,31.70
2018-09-29T15:46:32.816Z,34.40
2018-09-29T15:49:01.285Z,32.90
2018-09-29T15:51:29.871Z,32.80
2018-09-29T15:53:58.368Z,34.60
2018-09-29T15:56:26.824Z,32.60
2018-09-29T15:58:55.288Z,33.10
2018-09-29T16:01:23.794Z,32.30
2018-09-29T16:03:52.256Z,33.40
2018-09-29T16:06:20.895Z,34.40
2018-09-29T16:08:49.371Z,34.60
2018-09-29T16:11:17.826Z,35.50
2018-09-29T16:13:46.284Z,35.50
2018-09-29T16:16:14.784Z,35.20
2018-09-29T16:18:43.390Z,36.50
2018-09-29T16:21:11.954Z,35.20
2018-09-29T16:23:40.422Z,34.40
2018-09-29T16:26:08.900Z,34.30
2018-09-29T16:28:37.388Z,36.00
2018-09-29T16:31:06.123Z,35.90
2018-09-29T16:33:34.621Z,38.30
2018-09-29T16:36:03.110Z,37.40
2018-09-29T16:38:31.700Z,37.90
2018-09-29T16:41:00.103Z,41.20
2018-09-29T16:43:28.680Z,38.80
2018-09-29T16:45:57.183Z,40.50
2018-09-29T16:48:25.673Z,42.50
2018-09-29T16:50:54.146Z,39.80
2018-09-29T16:53:22.627Z,40.50
2018-09-29T16:55:51.155Z,41.50
2018-09-29T16:58:19.656Z,41.60
2018-09-29T17:00:48.287Z,45.10
2018-09-29T17:03:16.787Z,46.70
2018-09-29T17:05:45.258Z,49.50
2018-09-29T17:08:13.837Z,53.80
2018-09-29T17:10:42.310Z,53.80
2018-09-29T17:13:10.800Z,55.70
2018-09-29T17:15:39.305Z,57.90
2018-09-29T17:18:07.986Z,60.20
2018-09-29T17:20:36.439Z,62.20
2018-09-29T17:23:04.970Z,65.00
2018-09-29T17:25:33.435Z,68.40
2018-09-29T17:28:01.898Z,71.50
2018-09-29T17:30:30.461Z,74.70
2018-09-29T17:32:58.915Z,76.40
2018-09-29T17:35:27.748Z,79.20
2018-09-29T17:37:56.259Z,81.00
2018-09-29T17:40:24.817Z,83.40
2018-09-29T17:42:53.277Z,86.30
2018-09-29T17:45:21.883Z,87.70
2018-09-29T17:47:50.352Z,88.80
2018-09-29T17:50:18.779Z,93.20
2018-09-29T17:52:47.315Z,94.30
2018-09-29T17:55:16.223Z,96.10
2018-09-29T17:57:44.690Z,97.90
2018-09-29T18:00:13.204Z,98.40
2018-09-29T18:02:41.669Z,99.90
2018-09-29T18:05:10.173Z,99.90
2018-09-29T18:07:38.689Z,99.90
2018-09-29T18:10:07.238Z,99.90
2018-09-29T18:12:35.707Z,99.90
2018-09-29T18:15:04.737Z,99.90
2018-09-29T18:17:34.283Z,99.90
2018-09-29T18:20:02.983Z,99.90
2018-09-29T18:22:31.489Z,99.90
2018-09-29T18:24:59.965Z,99.90
2018-09-29T18:27:28.420Z,99.90
2018-09-29T18:29:56.902Z,99.90
2018-09-29T18:32:25.371Z,99.90
2018-09-29T18:34:53.866Z,99.90
2018-09-29T18:37:22.456Z,99.90
2018-09-29T18:39:50.869Z,99.90
2018-09-29T18:42:19.337Z,99.90
2018-09-29T18:44:47.885Z,99.90
2018-09-29T18:47:16.328Z,99.90
2018-09-29T18:49:44.838Z,99.90
2018-09-29T18:52:13.314Z,99.90
2018-09-29T18:54:41.790Z,99.90
2018-09-29T18:57:10.274Z,99.90
2018-09-29T18:59:38.764Z,99.90
2018-09-29T19:02:07.315Z,99.90
2018-09-29T19:04:35.803Z,99.90
2018-09-29T19:07:04.259Z,99.90
2018-09-29T19:09:32.840Z,99.90
2018-09-29T19:12:01.491Z,99.90
2018-09-29T19:14:29.937Z,99.90
2018-09-29T19:16:58.697Z,99.90
2018-09-29T19:19:27.236Z,99.90
2018-09-29T19:21:55.810Z,99.90
2018-09-29T19:24:24.260Z,99.90
2018-09-29T19:26:52.765Z,99.90
2018-09-29T19:29:21.245Z,99.90
2018-09-29T19:31:49.729Z,99.90
2018-09-29T19:34:18.248Z,99.90
2018-09-29T19:36:46.989Z,99.90
2018-09-29T19:39:15.571Z,99.90
2018-09-29T19:41:44.067Z,99.90
2018-09-29T19:44:12.574Z,99.90
2018-09-29T19:46:41.106Z,99.90
2018-09-29T19:49:09.609Z,99.90
2018-09-29T19:51:38.111Z,99.90
2018-09-29T19:54:06.608Z,99.90
2018-09-29T19:56:35.076Z,99.90
2018-09-29T19:59:03.709Z,99.90
2018-09-29T20:01:32.306Z,99.90
2018-09-29T20:04:01.081Z,99.90
2018-09-29T20:06:29.683Z,99.90
2018-09-29T20:08:58.151Z,99.90
2018-09-29T20:11:26.642Z,99.90
2018-09-29T20:13:55.176Z,99.90
2018-09-29T20:16:28.558Z,99.90
2018-09-29T20:18:57.075Z,99.90
2018-09-29T20:21:25.561Z,99.90
2018-09-29T20:23:54.046Z,99.90
2018-09-29T20:26:22.533Z,99.90
2018-09-29T20:28:51.028Z,99.90
2018-09-29T20:31:19.723Z,99.90
2018-09-29T20:33:48.309Z,99.90
2018-09-29T20:36:16.771Z,99.90
2018-09-29T20:38:45.247Z,99.90
2018-09-29T20:41:13.795Z,99.90
2018-09-29T20:43:42.291Z,99.90
2018-09-29T20:46:10.788Z,99.90
2018-09-29T20:48:39.264Z,99.90
2018-09-29T20:51:07.727Z,99.90
2018-09-29T20:53:36.753Z,99.90
2018-09-29T20:56:05.236Z,99.90
2018-09-29T20:58:33.711Z,99.90
2018-09-29T21:01:02.215Z,99.90
2018-09-29T21:03:30.708Z,99.90
2018-09-29T21:05:59.692Z,99.90
2018-09-29T21:08:28.154Z,99.90
2018-09-29T21:10:56.623Z,99.90
2018-09-29T21:13:25.272Z,99.90
2018-09-29T21:15:53.611Z,99.90
2018-09-29T21:18:22.103Z,99.90
2018-09-29T21:20:51.574Z,99.90
2018-09-29T21:23:20.044Z,99.90
2018-09-29T21:25:48.557Z,99.90
2018-09-29T21:28:17.028Z,99.90
2018-09-29T21:30:45.544Z,99.90
2018-09-29T21:33:14.056Z,99.90
2018-09-29T21:35:42.558Z,99.90
2018-09-29T21:38:11.021Z,99.90
2018-09-29T21:40:39.483Z,99.90
2018-09-29T21:43:08.004Z,99.90
2018-09-29T21:45:36.452Z,99.90
2018-09-29T21:48:05.284Z,99.90
2018-09-29T21:50:33.739Z,99.90
2018-09-29T21:53:02.215Z,99.90
2018-09-29T21:55:31.632Z,99.90
2018-09-29T21:58:00.126Z,99.90
2018-09-29T22:00:34.419Z,99.90
2018-09-29T22:03:02.887Z,99.90
2018-09-29T22:05:31.338Z,99.90
2018-09-29T22:07:59.815Z,99.90
2018-09-29T22:10:28.281Z,99.90
2018-09-29T22:12:56.723Z,99.90
2018-09-29T22:15:25.214Z,99.90
2018-09-29T22:17:53.685Z,99.90
2018-09-29T22:20:22.131Z,99.90
2018-09-29T22:22:50.624Z,99.90
2018-09-29T22:25:19.211Z,99.90
2018-09-29T22:27:47.699Z,99.90
2018-09-29T22:30:16.171Z,99.90
2018-09-29T22:32:44.640Z,99.90
2018-09-29T22:35:13.127Z,99.90
2018-09-29T22:37:41.861Z,99.90
2018-09-29T22:40:10.349Z,99.90
2018-09-29T22:42:38.804Z,99.90
2018-09-29T22:45:07.440Z,99.90
2018-09-29T22:47:35.921Z,99.90
2018-09-29T22:50:04.425Z,99.90
2018-09-29T22:52:32.878Z,99.90
2018-09-29T22:55:01.936Z,99.90
2018-09-29T22:57:30.429Z,99.90
2018-09-29T22:59:59.007Z,99.90
2018-09-29T23:02:27.457Z,99.90
2018-09-29T23:04:55.957Z,99.90
2018-09-29T23:07:24.419Z,99.90
2018-09-29T23:09:52.885Z,99.90
2018-09-29T23:12:21.366Z,99.90
2018-09-29T23:14:49.826Z,99.90
2018-09-29T23:17:18.312Z,99.90
2018-09-29T23:19:46.791Z,99.90
2018-09-29T23:22:15.275Z,99.90
2018-09-29T23:24:43.760Z,99.90
2018-09-29T23:27:12.359Z,99.90
2018-09-29T23:29:40.937Z,99.90
2018-09-29T23:32:09.381Z,99.90
2018-09-29T23:34:37.816Z,99.90
2018-09-29T23:37:06.324Z,99.90
2018-09-29T23:39:34.754Z,99.90
2018-09-29T23:42:03.264Z,99.90
2018-09-29T23:44:31.746Z,99.90
2018-09-29T23:47:00.298Z,99.90
2018-09-29T23:49:28.745Z,99.90
2018-09-29T23:51:57.237Z,99.90
2018-09-29T23:54:25.795Z,99.90
2018-09-29T23:56:54.280Z,99.90
2018-09-29T23:59:22.792Z,99.90
